createdAt,value
2018-05-21T00:00:21.893Z,14.98
2018-05-21T00:01:22.002Z,15.05
2018-05-21T00:02:21.918Z,15.02
2018-05-21T00:03:22.109Z,14.99
2018-05-21T00:04:21.946Z,14.98
2018-05-21T00:05:23.056Z,14.98
2018-05-21T00:06:21.955Z,14.95
2018-05-21T00:07:22.041Z,15.02
2018-05-21T00:08:21.984Z,14.98
2018-05-21T00:09:22.056Z,15.01
2018-05-21T00:10:22.010Z,14.99
2018-05-21T00:11:22.069Z,14.91
2018-05-21T00:12:22.032Z,15.02
2018-05-21T00:13:22.188Z,14.99
2018-05-21T00:14:22.047Z,14.90
2018-05-21T00:15:22.200Z,14.87
2018-05-21T00:16:22.074Z,14.87
2018-05-21T00:17:22.222Z,14.86
2018-05-21T00:18:22.122Z,14.84
2018-05-21T00:19:22.224Z,14.84
2018-05-21T00:20:22.119Z,14.84
2018-05-21T00:21:22.122Z,14.75
2018-05-21T00:22:22.139Z,14.80
2018-05-21T00:23:22.251Z,14.81
2018-05-21T00:24:22.167Z,14.78
2018-05-21T00:25:22.272Z,14.80
2018-05-21T00:26:22.178Z,14.69
2018-05-21T00:27:22.329Z,14.78
2018-05-21T00:28:22.208Z,14.75
2018-05-21T00:29:22.288Z,14.75
2018-05-21T00:30:22.220Z,14.71
2018-05-21T00:31:22.260Z,14.71
2018-05-21T00:32:22.357Z,14.72
2018-05-21T00:33:22.271Z,14.67
2018-05-21T00:34:22.326Z,14.62
2018-05-21T00:35:22.275Z,14.67
2018-05-21T00:36:22.452Z,14.65
2018-05-21T00:37:22.300Z,14.68
2018-05-21T00:38:22.311Z,14.60
2018-05-21T00:39:23.394Z,14.60
2018-05-21T00:40:22.372Z,14.47
2018-05-21T00:41:22.502Z,14.56
2018-05-21T00:42:22.364Z,14.52
2018-05-21T00:43:22.509Z,14.65
2018-05-21T00:44:22.407Z,14.46
2018-05-21T00:45:09.687Z,14.53
2018-05-21T00:46:09.538Z,14.50
2018-05-21T00:47:09.621Z,14.39
2018-05-21T00:48:09.568Z,14.43
2018-05-21T00:49:09.686Z,14.38
2018-05-21T00:50:09.590Z,14.34
2018-05-21T00:50:56.897Z,14.52
2018-05-21T00:51:56.783Z,14.34
2018-05-21T00:52:56.853Z,14.49
2018-05-21T00:53:56.841Z,14.39
2018-05-21T00:54:56.989Z,14.43
2018-05-21T00:55:56.822Z,14.37
2018-05-21T00:56:57.928Z,14.37
2018-05-21T00:57:56.864Z,14.39
2018-05-21T00:58:57.011Z,14.39
2018-05-21T00:59:56.872Z,14.38
2018-05-21T01:12:10.878Z,14.27
2018-05-21T01:13:12.969Z,14.25
2018-05-21T01:20:04.586Z,14.04
2018-05-21T01:21:11.588Z,14.04
2018-05-21T01:22:04.579Z,14.02
2018-05-21T01:23:04.749Z,13.95
2018-05-21T01:24:04.599Z,13.96
2018-05-21T01:25:11.522Z,14.07
2018-05-21T01:26:04.626Z,14.02
2018-05-21T01:27:15.530Z,14.07
2018-05-21T01:28:04.640Z,14.04
2018-05-21T01:29:05.815Z,13.96
2018-05-21T01:30:04.660Z,13.98
2018-05-21T01:31:05.828Z,13.94
2018-05-21T01:32:04.678Z,14.02
2018-05-21T01:33:09.469Z,13.94
2018-05-21T01:34:04.693Z,13.99
2018-05-21T01:35:04.843Z,13.98
2018-05-21T01:36:54.134Z,13.89
2018-05-21T01:37:52.998Z,13.91
2018-05-21T01:39:04.141Z,13.91
2018-05-21T01:39:53.032Z,13.96
2018-05-21T01:40:53.126Z,13.94
2018-05-21T01:41:53.050Z,13.96
2018-05-21T01:42:54.236Z,13.95
2018-05-21T01:43:53.089Z,13.79
2018-05-21T01:44:55.193Z,13.81
2018-05-21T01:45:53.094Z,13.87
2018-05-21T01:46:55.283Z,13.81
2018-05-21T01:47:53.101Z,13.89
2018-05-21T01:48:55.296Z,13.84
2018-05-21T01:49:53.133Z,13.83
2018-05-21T01:50:53.262Z,13.80
2018-05-21T01:51:53.151Z,13.79
2018-05-21T01:52:59.118Z,13.81
2018-05-21T01:53:53.173Z,13.87
2018-05-21T01:54:59.131Z,13.84
2018-05-21T02:02:46.929Z,13.63
2018-05-21T02:03:35.506Z,13.70
2018-05-21T02:04:35.649Z,13.56
2018-05-21T02:05:35.526Z,13.58
2018-05-21T02:06:47.537Z,13.56
2018-05-21T02:07:35.554Z,13.58
2018-05-21T02:08:35.733Z,13.47
2018-05-21T02:09:35.563Z,13.59
2018-05-21T02:10:35.697Z,13.49
2018-05-21T02:11:35.579Z,13.54
2018-05-21T02:12:37.749Z,13.52
2018-05-21T02:13:35.620Z,13.44
2018-05-21T02:14:35.728Z,13.51
2018-05-21T02:15:35.624Z,13.52
2018-05-21T02:17:26.719Z,13.25
2018-05-21T02:18:28.789Z,13.36
2018-05-21T02:19:26.727Z,13.43
2018-05-21T02:20:26.859Z,13.27
2018-05-21T02:21:26.690Z,13.29
2018-05-21T02:22:26.716Z,13.37
2018-05-21T02:23:27.909Z,13.24
2018-05-21T02:24:26.732Z,13.24
2018-05-21T02:25:28.931Z,13.33
2018-05-21T02:26:26.773Z,13.24
2018-05-21T02:27:26.896Z,13.32
2018-05-21T02:28:26.756Z,13.30
2018-05-21T02:29:33.879Z,13.24
2018-05-21T02:30:26.793Z,13.30
2018-05-21T02:31:37.895Z,13.30
2018-05-21T02:32:26.816Z,13.32
2018-05-21T02:42:46.818Z,13.29
2018-05-21T02:43:47.999Z,13.20
2018-05-21T02:44:46.814Z,13.37
2018-05-21T02:45:48.935Z,13.15
2018-05-21T02:46:46.832Z,13.17
2018-05-21T02:47:52.535Z,13.17
2018-05-21T02:48:46.888Z,13.20
2018-05-21T02:49:47.094Z,13.21
2018-05-21T02:50:46.866Z,13.21
2018-05-21T02:51:47.060Z,13.25
2018-05-21T02:52:46.897Z,13.21
2018-05-21T02:53:48.069Z,13.37
2018-05-21T02:54:46.923Z,13.37
2018-05-21T02:55:48.082Z,13.27
2018-05-21T02:56:46.942Z,13.24
2018-05-21T02:57:49.102Z,13.20
2018-05-21T02:58:46.952Z,13.27
2018-05-21T02:59:48.127Z,13.29
2018-05-21T03:00:46.969Z,13.32
2018-05-21T03:01:48.118Z,13.22
2018-05-21T03:02:47.390Z,13.25
2018-05-21T03:03:53.052Z,13.24
2018-05-21T03:04:47.025Z,13.15
2018-05-21T03:05:48.147Z,13.22
2018-05-21T03:06:47.030Z,13.14
2018-05-21T03:07:47.255Z,13.14
2018-05-21T03:08:47.053Z,13.17
2018-05-21T03:10:45.470Z,13.11
2018-05-21T03:11:51.257Z,13.09
2018-05-21T03:12:45.469Z,13.14
2018-05-21T03:13:46.665Z,13.17
2018-05-21T03:14:45.504Z,13.12
2018-05-21T03:15:45.656Z,13.07
2018-05-21T03:16:45.518Z,13.11
2018-05-21T03:17:52.221Z,13.09
2018-05-21T03:18:45.519Z,13.03
2018-05-21T03:19:51.212Z,13.15
2018-05-21T03:20:45.567Z,13.04
2018-05-21T03:21:45.568Z,13.02
2018-05-21T03:22:46.674Z,13.04
2018-05-21T03:25:06.153Z,12.97
2018-05-21T03:26:06.155Z,12.99
2018-05-21T03:27:06.182Z,12.97
2018-05-21T03:28:10.833Z,13.02
2018-05-21T03:29:06.155Z,13.07
2018-05-21T03:30:06.285Z,13.00
2018-05-21T03:31:06.185Z,12.99
2018-05-21T03:46:20.443Z,13.02
2018-05-21T03:47:18.509Z,13.03
2018-05-21T03:48:18.693Z,13.04
2018-05-21T03:49:18.529Z,13.00
2018-05-21T03:50:18.704Z,12.96
2018-05-21T03:51:18.546Z,12.97
2018-05-21T03:52:18.716Z,12.99
2018-05-21T03:53:18.566Z,13.02
2018-05-21T03:54:18.728Z,13.02
2018-05-21T03:55:18.581Z,13.09
2018-05-21T03:56:18.752Z,13.11
2018-05-21T03:57:18.603Z,13.14
2018-05-21T03:58:18.613Z,13.06
2018-05-21T03:59:18.774Z,13.06
2018-05-21T04:00:18.639Z,13.14
2018-05-21T04:01:18.648Z,13.11
2018-05-21T04:02:18.806Z,13.21
2018-05-21T04:03:18.681Z,13.24
2018-05-21T04:04:18.805Z,13.20
2018-05-21T04:05:18.683Z,13.20
2018-05-21T04:06:18.832Z,13.25
2018-05-21T04:07:18.695Z,13.29
2018-05-21T04:08:18.749Z,13.24
2018-05-21T04:09:18.736Z,13.22
2018-05-21T04:10:18.736Z,13.32
2018-05-21T04:11:18.852Z,13.27
2018-05-21T04:12:18.757Z,13.33
2018-05-21T04:13:18.869Z,13.24
2018-05-21T04:14:18.781Z,13.29
2018-05-21T04:15:18.873Z,13.29
2018-05-21T04:16:18.796Z,13.33
2018-05-21T04:17:18.995Z,13.37
2018-05-21T04:18:18.816Z,13.37
2018-05-21T04:19:19.019Z,13.40
2018-05-21T04:20:18.838Z,13.36
2018-05-21T04:21:18.838Z,13.36
2018-05-21T04:22:19.038Z,13.27
2018-05-21T04:23:18.859Z,13.36
2018-05-21T04:24:19.048Z,13.49
2018-05-21T04:25:18.877Z,13.52
2018-05-21T04:26:18.890Z,13.47
2018-05-21T04:27:18.899Z,13.41
2018-05-21T04:28:19.077Z,13.55
2018-05-21T04:29:18.912Z,13.52
2018-05-21T04:30:19.082Z,13.56
2018-05-21T04:31:18.935Z,13.58
2018-05-21T04:32:19.105Z,13.55
2018-05-21T04:33:18.951Z,13.55
2018-05-21T04:34:19.114Z,13.59
2018-05-21T04:35:18.983Z,13.61
2018-05-21T04:36:19.209Z,13.62
2018-05-21T04:37:18.991Z,13.65
2018-05-21T04:38:19.248Z,13.61
2018-05-21T04:39:19.006Z,13.65
2018-05-21T04:40:19.158Z,13.77
2018-05-21T04:41:19.031Z,13.71
2018-05-21T04:42:19.171Z,13.88
2018-05-21T04:43:19.050Z,13.88
2018-05-21T04:44:19.057Z,13.88
2018-05-21T04:45:19.090Z,13.94
2018-05-21T04:46:19.196Z,13.92
2018-05-21T04:47:19.102Z,13.99
2018-05-21T04:48:19.210Z,13.94
2018-05-21T04:49:19.104Z,14.07
2018-05-21T04:50:19.110Z,14.07
2018-05-21T04:51:19.342Z,14.12
2018-05-21T04:52:19.134Z,14.02
2018-05-21T04:53:19.346Z,14.14
2018-05-21T04:54:19.151Z,14.25
2018-05-21T04:55:19.357Z,14.25
2018-05-21T04:56:19.166Z,14.27
2018-05-21T04:57:19.372Z,14.32
2018-05-21T04:58:19.193Z,14.38
2018-05-21T04:59:19.388Z,14.39
2018-05-21T05:00:19.209Z,14.46
2018-05-21T05:01:19.400Z,14.44
2018-05-21T05:02:19.226Z,14.38
2018-05-21T05:03:19.415Z,14.49
2018-05-21T05:04:19.250Z,14.53
2018-05-21T05:05:19.426Z,14.54
2018-05-21T05:06:19.263Z,14.60
2018-05-21T05:07:19.448Z,14.61
2018-05-21T05:08:19.317Z,14.62
2018-05-21T05:09:19.452Z,14.71
2018-05-21T05:10:19.316Z,14.65
2018-05-21T05:11:19.465Z,14.71
2018-05-21T05:12:19.335Z,14.69
2018-05-21T05:13:19.478Z,14.75
2018-05-21T05:14:19.348Z,14.75
2018-05-21T05:15:19.516Z,14.74
2018-05-21T05:16:19.355Z,14.86
2018-05-21T05:17:19.512Z,14.83
2018-05-21T05:18:19.380Z,14.99
2018-05-21T05:19:19.523Z,14.98
2018-05-21T05:20:19.398Z,15.02
2018-05-21T05:21:19.402Z,14.99
2018-05-21T05:22:19.434Z,15.02
2018-05-21T05:23:19.423Z,15.09
2018-05-21T05:24:19.665Z,15.11
2018-05-21T05:25:19.453Z,15.20
2018-05-21T05:26:19.685Z,15.20
2018-05-21T05:27:19.452Z,15.19
2018-05-21T05:28:19.687Z,15.21
2018-05-21T05:29:19.476Z,15.28
2018-05-21T05:30:19.611Z,15.31
2018-05-21T05:31:19.507Z,15.27
2018-05-21T05:32:19.629Z,15.24
2018-05-21T05:33:19.517Z,15.26
2018-05-21T05:34:19.620Z,15.28
2018-05-21T05:35:19.541Z,15.42
2018-05-21T05:36:19.635Z,15.35
2018-05-21T05:37:19.557Z,15.39
2018-05-21T05:38:19.656Z,15.42
2018-05-21T05:39:19.571Z,15.31
2018-05-21T05:40:19.766Z,15.39
2018-05-21T05:41:19.598Z,15.41
2018-05-21T05:42:19.680Z,15.39
2018-05-21T05:43:19.633Z,15.46
2018-05-21T05:44:19.700Z,15.48
2018-05-21T05:45:19.640Z,15.54
2018-05-21T05:46:19.646Z,15.60
2018-05-21T05:47:19.658Z,15.54
2018-05-21T05:48:19.727Z,15.51
2018-05-21T05:49:19.665Z,15.56
2018-05-21T05:50:19.728Z,15.74
2018-05-21T05:51:19.702Z,15.68
2018-05-21T05:52:19.743Z,15.70
2018-05-21T05:53:19.720Z,15.85
2018-05-21T05:54:19.762Z,15.82
2018-05-21T05:55:19.719Z,15.72
2018-05-21T05:56:19.776Z,15.82
2018-05-21T05:57:19.745Z,15.85
2018-05-21T05:58:19.794Z,15.86
2018-05-21T05:59:19.755Z,15.85
2018-05-21T06:00:19.918Z,15.96
2018-05-21T06:01:19.799Z,16.00
2018-05-21T06:02:06.959Z,16.03
2018-05-21T06:03:06.846Z,16.11
2018-05-21T06:04:06.930Z,16.09
2018-05-21T06:05:06.862Z,16.01
2018-05-21T06:06:06.943Z,16.14
2018-05-21T06:07:06.879Z,16.20
2018-05-21T06:08:06.894Z,16.15
2018-05-21T06:09:06.905Z,16.06
2018-05-21T06:10:06.971Z,16.06
2018-05-21T06:11:06.928Z,16.18
2018-05-21T06:12:06.985Z,16.18
2018-05-21T06:13:06.937Z,16.30
2018-05-21T06:14:07.006Z,16.37
2018-05-21T06:15:53.949Z,16.35
2018-05-21T06:16:53.966Z,16.40
2018-05-21T06:17:53.965Z,16.42
2018-05-21T06:18:54.025Z,16.30
2018-05-21T06:19:53.956Z,16.40
2018-05-21T06:20:54.052Z,16.48
2018-05-21T06:21:53.988Z,16.45
2018-05-21T06:22:53.993Z,16.44
2018-05-21T06:23:54.067Z,16.59
2018-05-21T06:24:54.015Z,16.68
2018-05-21T06:25:54.153Z,16.67
2018-05-21T06:26:54.026Z,16.75
2018-05-21T06:27:54.154Z,16.80
2018-05-21T06:28:54.071Z,16.86
2018-05-21T06:29:54.282Z,16.86
2018-05-21T06:30:54.084Z,16.78
2018-05-21T06:31:54.297Z,16.98
2018-05-21T06:32:54.093Z,17.11
2018-05-21T06:33:54.371Z,17.22
2018-05-21T06:34:54.097Z,17.29
2018-05-21T06:35:54.321Z,17.28
2018-05-21T06:36:54.127Z,17.28
2018-05-21T06:37:54.336Z,17.32
2018-05-21T06:38:54.139Z,17.28
2018-05-21T06:39:54.147Z,17.32
2018-05-21T06:40:54.228Z,17.26
2018-05-21T06:41:54.189Z,17.26
2018-05-21T06:42:54.375Z,17.29
2018-05-21T06:43:54.186Z,17.30
2018-05-21T06:44:54.381Z,17.25
2018-05-21T06:45:54.212Z,17.18
2018-05-21T06:46:54.219Z,17.13
2018-05-21T06:47:54.241Z,17.26
2018-05-21T06:48:54.241Z,17.20
2018-05-21T06:49:41.236Z,17.28
2018-05-21T06:50:41.113Z,17.29
2018-05-21T06:51:41.048Z,17.29
2018-05-21T06:52:41.093Z,17.38
2018-05-21T06:53:41.055Z,17.32
2018-05-21T06:54:41.080Z,17.40
2018-05-21T06:55:41.152Z,17.36
2018-05-21T06:56:41.087Z,17.44
2018-05-21T06:57:41.153Z,17.43
2018-05-21T06:58:41.105Z,17.44
2018-05-21T06:59:41.120Z,17.38
2018-05-21T07:01:28.115Z,17.51
2018-05-21T07:02:28.008Z,17.55
2018-05-21T07:03:28.030Z,17.64
2018-05-21T07:04:28.016Z,17.55
2018-05-21T07:05:28.089Z,17.62
2018-05-21T07:06:28.039Z,17.55
2018-05-21T07:07:28.115Z,17.63
2018-05-21T07:08:28.054Z,17.62
2018-05-21T07:09:28.130Z,17.69
2018-05-21T07:10:28.099Z,17.70
2018-05-21T07:11:28.143Z,17.74
2018-05-21T07:12:28.098Z,17.79
2018-05-21T07:13:28.156Z,17.82
2018-05-21T07:14:28.161Z,17.87
2018-05-21T07:15:28.134Z,17.85
2018-05-21T07:16:28.195Z,17.95
2018-05-21T07:17:28.144Z,17.94
2018-05-21T07:18:28.150Z,17.92
2018-05-21T07:19:28.160Z,17.95
2018-05-21T07:20:28.223Z,17.91
2018-05-21T07:21:28.183Z,18.04
2018-05-21T07:22:28.212Z,18.03
2018-05-21T07:23:28.205Z,17.95
2018-05-21T07:24:28.307Z,18.04
2018-05-21T07:25:28.222Z,18.13
2018-05-21T07:26:28.342Z,18.12
2018-05-21T07:27:28.245Z,18.27
2018-05-21T07:28:28.252Z,18.22
2018-05-21T07:29:28.259Z,18.29
2018-05-21T07:30:28.276Z,18.27
2018-05-21T07:31:28.305Z,18.37
2018-05-21T07:32:28.298Z,18.33
2018-05-21T07:33:28.306Z,18.42
2018-05-21T07:34:28.319Z,18.50
2018-05-21T07:35:28.401Z,18.47
2018-05-21T07:36:28.325Z,18.46
2018-05-21T07:38:15.396Z,18.55
2018-05-21T07:39:15.363Z,18.57
2018-05-21T07:40:15.369Z,18.64
2018-05-21T07:41:15.365Z,18.57
2018-05-21T07:42:15.385Z,18.57
2018-05-21T07:43:15.381Z,18.70
2018-05-21T07:44:15.397Z,18.74
2018-05-21T07:45:15.410Z,18.72
2018-05-21T07:46:15.416Z,18.65
2018-05-21T07:47:15.425Z,18.70
2018-05-21T07:48:15.436Z,18.74
2018-05-21T07:49:15.506Z,18.82
2018-05-21T07:50:15.459Z,18.82
2018-05-21T07:51:15.469Z,18.84
2018-05-21T07:52:15.474Z,18.97
2018-05-21T07:53:15.491Z,18.97
2018-05-21T07:54:15.508Z,18.99
2018-05-21T07:55:15.509Z,18.99
2018-05-21T07:56:15.516Z,19.11
2018-05-21T07:57:15.523Z,19.10
2018-05-21T07:58:15.595Z,19.05
2018-05-21T07:59:15.542Z,19.14
2018-05-21T08:00:15.653Z,19.14
2018-05-21T08:01:15.558Z,19.15
2018-05-21T08:02:15.585Z,19.24
2018-05-21T08:03:15.579Z,19.31
2018-05-21T08:04:15.609Z,19.42
2018-05-21T08:05:15.678Z,19.38
2018-05-21T08:06:15.631Z,19.35
2018-05-21T08:07:15.620Z,19.39
2018-05-21T08:08:15.640Z,19.47
2018-05-21T08:09:15.749Z,19.42
2018-05-21T08:11:02.588Z,19.42
2018-05-21T08:12:02.494Z,19.47
2018-05-21T08:13:02.491Z,19.47
2018-05-21T08:14:02.624Z,19.54
2018-05-21T08:15:02.535Z,19.63
2018-05-21T08:16:02.648Z,19.65
2018-05-21T08:17:02.515Z,19.61
2018-05-21T08:18:02.563Z,19.63
2018-05-21T08:19:02.539Z,19.63
2018-05-21T08:20:02.575Z,19.65
2018-05-21T08:21:02.789Z,19.69
2018-05-21T08:22:02.608Z,19.72
2018-05-21T08:23:02.574Z,19.75
2018-05-21T08:24:02.808Z,19.68
2018-05-21T08:25:02.595Z,19.66
2018-05-21T08:26:02.634Z,19.83
2018-05-21T08:27:02.820Z,19.80
2018-05-21T08:28:02.625Z,19.83
2018-05-21T08:29:02.803Z,19.78
2018-05-21T08:30:02.787Z,19.83
2018-05-21T08:31:02.660Z,19.87
2018-05-21T08:32:02.691Z,19.88
2018-05-21T08:33:36.352Z,20.09
2018-05-21T09:02:10.401Z,21.42
2018-05-21T09:03:06.904Z,21.60
2018-05-21T09:08:32.863Z,21.94
2018-05-21T09:09:32.831Z,22.10
2018-05-21T09:10:32.827Z,22.10
2018-05-21T09:11:56.399Z,22.02
2018-05-21T09:12:32.855Z,22.07
2018-05-21T09:13:37.389Z,22.09
2018-05-21T09:14:32.829Z,22.25
2018-05-21T09:16:02.873Z,22.22
2018-05-21T09:16:32.939Z,22.25
2018-05-21T09:37:02.940Z,22.60
2018-05-21T09:38:07.800Z,22.69
2018-05-21T09:39:02.972Z,22.65
2018-05-21T09:40:08.833Z,22.67
2018-05-21T09:41:03.001Z,22.67
2018-05-21T09:42:07.967Z,22.52
2018-05-21T09:43:02.961Z,22.52
2018-05-21T09:44:03.061Z,22.75
2018-05-21T09:45:02.983Z,22.94
2018-05-21T09:46:04.084Z,23.12
2018-05-21T09:47:03.038Z,23.23
2018-05-21T09:48:25.213Z,23.29
2018-05-21T09:49:03.039Z,23.24
2018-05-21T09:50:03.053Z,23.39
2018-05-21T09:51:17.837Z,23.20
2018-05-21T09:52:03.074Z,23.29
2018-05-21T09:57:52.055Z,23.23
2018-05-21T09:58:52.199Z,23.19
2018-05-21T10:00:47.470Z,23.43
2018-05-21T10:01:47.337Z,23.57
2018-05-21T10:02:47.367Z,23.53
2018-05-21T10:03:47.381Z,23.57
2018-05-21T10:04:47.427Z,23.68
2018-05-21T10:05:47.690Z,23.70
2018-05-21T10:06:47.404Z,23.72
2018-05-21T10:07:47.566Z,23.64
2018-05-21T10:08:47.434Z,23.77
2018-05-21T10:09:47.453Z,23.71
2018-05-21T10:10:47.451Z,23.65
2018-05-21T10:11:47.465Z,23.75
2018-05-21T10:12:47.467Z,23.75
2018-05-21T10:13:47.497Z,23.72
2018-05-21T10:15:34.579Z,23.90
2018-05-21T10:16:34.600Z,23.80
2018-05-21T10:18:29.727Z,24.13
2018-05-21T10:19:29.840Z,24.08
2018-05-21T10:20:29.804Z,23.82
2018-05-21T10:21:29.817Z,23.71
2018-05-21T10:22:29.802Z,23.58
2018-05-21T10:23:29.767Z,23.50
2018-05-21T10:24:29.802Z,23.60
2018-05-21T10:25:29.785Z,23.77
2018-05-21T10:26:30.865Z,23.77
2018-05-21T10:27:29.860Z,23.76
2018-05-21T10:28:29.876Z,23.83
2018-05-21T10:29:29.886Z,23.77
2018-05-21T10:30:29.869Z,24.00
2018-05-21T10:31:29.888Z,23.95
2018-05-21T10:33:17.284Z,24.19
2018-05-21T10:34:17.096Z,24.17
2018-05-21T10:36:12.269Z,24.01
2018-05-21T10:37:12.250Z,24.14
2018-05-21T10:38:12.285Z,24.37
2018-05-21T10:39:12.276Z,24.42
2018-05-21T10:40:12.270Z,24.39
2018-05-21T10:41:12.288Z,24.49
2018-05-21T10:42:12.386Z,24.52
2018-05-21T10:43:59.178Z,24.60
2018-05-21T10:44:59.074Z,24.59
2018-05-21T10:45:59.087Z,24.63
2018-05-21T10:46:59.180Z,24.69
2018-05-21T10:47:59.103Z,24.64
2018-05-21T10:48:59.199Z,24.67
2018-05-21T10:49:59.135Z,24.59
2018-05-21T10:50:59.291Z,24.59
2018-05-21T10:51:59.178Z,24.57
2018-05-21T10:53:12.080Z,24.64
2018-05-21T10:53:59.196Z,24.73
2018-05-21T10:55:04.041Z,24.71
2018-05-21T10:55:59.214Z,24.83
2018-05-21T11:00:34.841Z,24.61
2018-05-21T11:01:40.554Z,24.80
2018-05-21T11:05:30.575Z,24.87
2018-05-21T11:06:28.591Z,24.76
2018-05-21T11:07:33.592Z,24.77
2018-05-21T11:08:28.607Z,24.76
2018-05-21T11:09:49.657Z,24.83
2018-05-21T11:10:28.642Z,24.77
2018-05-21T11:11:28.779Z,24.61
2018-05-21T11:12:28.660Z,24.57
2018-05-21T11:13:28.795Z,24.47
2018-05-21T11:14:28.709Z,24.29
2018-05-21T11:15:28.697Z,24.52
2018-05-21T11:16:28.813Z,24.32
2018-05-21T11:17:28.739Z,24.53
2018-05-21T11:18:28.733Z,24.61
2018-05-21T11:19:28.767Z,24.97
2018-05-21T11:20:28.804Z,25.20
2018-05-21T11:21:28.858Z,25.24
2018-05-21T11:22:28.784Z,25.38
2018-05-21T11:23:28.809Z,25.46
2018-05-21T11:24:28.924Z,25.44
2018-05-21T11:25:28.846Z,25.67
2018-05-21T11:27:15.638Z,25.49
2018-05-21T11:28:15.630Z,25.50
2018-05-21T11:29:15.634Z,25.50
2018-05-21T11:30:15.665Z,25.54
2018-05-21T11:31:15.660Z,25.39
2018-05-21T11:32:15.684Z,25.46
2018-05-21T11:34:02.877Z,25.80
2018-05-21T11:35:02.903Z,25.84
2018-05-21T11:36:02.899Z,25.90
2018-05-21T11:37:02.878Z,25.91
2018-05-21T11:38:02.916Z,25.79
2018-05-21T11:39:02.919Z,25.62
2018-05-21T11:40:02.963Z,25.59
2018-05-21T11:40:49.733Z,25.62
2018-05-21T11:41:49.724Z,25.46
2018-05-21T11:42:49.733Z,25.46
2018-05-21T11:43:49.774Z,25.64
2018-05-21T11:44:49.746Z,25.77
2018-05-21T11:45:49.759Z,25.86
2018-05-21T11:46:49.785Z,25.86
2018-05-21T11:47:49.797Z,25.89
2018-05-21T11:48:49.803Z,25.86
2018-05-21T11:49:49.812Z,25.84
2018-05-21T11:50:49.846Z,25.75
2018-05-21T11:51:49.859Z,25.69
2018-05-21T11:52:49.840Z,25.71
2018-05-21T11:53:49.863Z,25.83
2018-05-21T11:55:36.927Z,25.82
2018-05-21T11:56:36.957Z,25.65
2018-05-21T11:57:36.916Z,25.79
2018-05-21T11:58:36.935Z,25.87
2018-05-21T11:59:37.095Z,26.15
2018-05-21T12:00:36.990Z,26.21
2018-05-21T12:01:37.128Z,26.40
2018-05-21T12:02:37.136Z,26.36
2018-05-21T12:03:37.065Z,25.91
2018-05-21T12:04:36.995Z,25.59
2018-05-21T12:05:37.056Z,25.32
2018-05-21T12:06:37.044Z,25.27
2018-05-21T12:07:37.097Z,25.01
2018-05-21T12:08:37.072Z,24.97
2018-05-21T12:10:24.845Z,25.02
2018-05-21T12:11:24.457Z,25.05
2018-05-21T12:12:24.437Z,25.20
2018-05-21T12:13:36.301Z,25.31
2018-05-21T12:14:24.446Z,25.34
2018-05-21T12:15:29.309Z,25.34
2018-05-21T12:16:24.473Z,25.46
2018-05-21T12:17:37.311Z,25.49
2018-05-21T12:18:24.539Z,25.67
2018-05-21T12:19:30.289Z,25.91
2018-05-21T12:20:24.535Z,25.86
2018-05-21T12:21:45.562Z,25.83
2018-05-21T12:22:24.658Z,25.75
2018-05-21T12:23:24.574Z,25.39
2018-05-21T12:24:24.665Z,25.38
2018-05-21T12:25:24.598Z,25.17
2018-05-21T12:42:11.319Z,26.12
2018-05-21T12:43:11.471Z,26.24
2018-05-21T12:45:06.683Z,26.11
2018-05-21T12:46:06.662Z,25.99
2018-05-21T12:47:06.843Z,25.91
2018-05-21T12:48:06.711Z,25.89
2018-05-21T12:49:06.873Z,25.84
2018-05-21T12:50:06.717Z,25.91
2018-05-21T12:51:06.878Z,25.90
2018-05-21T12:52:06.749Z,25.65
2018-05-21T12:53:06.759Z,25.32
2018-05-21T12:54:06.779Z,25.34
2018-05-21T12:55:06.797Z,25.61
2018-05-21T12:56:06.801Z,25.90
2018-05-21T12:57:06.813Z,26.12
2018-05-21T12:58:06.848Z,26.04
2018-05-21T12:59:06.982Z,25.98
2018-05-21T13:00:06.849Z,25.93
2018-05-21T13:01:06.993Z,25.89
2018-05-21T13:02:06.920Z,25.91
2018-05-21T13:03:06.935Z,26.17
2018-05-21T13:04:53.757Z,26.17
2018-05-21T13:05:54.738Z,26.08
2018-05-21T13:06:53.658Z,25.90
2018-05-21T13:07:53.690Z,25.99
2018-05-21T13:08:53.695Z,26.15
2018-05-21T13:09:53.705Z,26.21
2018-05-21T13:10:53.709Z,26.17
2018-05-21T13:11:53.727Z,26.17
2018-05-21T13:12:53.760Z,26.27
2018-05-21T13:13:53.748Z,26.12
2018-05-21T13:14:53.771Z,26.40
2018-05-21T13:15:53.804Z,26.58
2018-05-21T13:16:53.818Z,26.61
2018-05-21T13:17:40.890Z,26.54
2018-05-21T13:18:40.829Z,26.47
2018-05-21T13:19:40.854Z,26.55
2018-05-21T13:20:40.905Z,26.50
2018-05-21T13:21:40.872Z,26.62
2018-05-21T13:22:41.024Z,26.58
2018-05-21T13:23:40.889Z,26.55
2018-05-21T13:24:40.918Z,26.52
2018-05-21T13:25:41.110Z,26.50
2018-05-21T13:26:40.977Z,26.55
2018-05-21T13:27:40.955Z,26.57
2018-05-21T13:28:41.079Z,26.57
2018-05-21T13:29:40.973Z,26.50
2018-05-21T13:30:40.993Z,26.49
2018-05-21T13:31:41.076Z,26.40
2018-05-21T13:32:41.019Z,26.24
2018-05-21T13:33:41.031Z,26.21
2018-05-21T13:34:41.119Z,26.27
2018-05-21T13:35:41.125Z,26.25
2018-05-21T13:36:41.068Z,26.32
2018-05-21T13:37:41.126Z,26.42
2018-05-21T13:38:41.123Z,26.43
2018-05-21T13:39:41.107Z,26.57
2018-05-21T13:40:41.126Z,26.43
2018-05-21T13:41:41.134Z,26.42
2018-05-21T13:42:41.159Z,26.47
2018-05-21T13:43:41.165Z,26.52
2018-05-21T13:44:41.269Z,26.47
2018-05-21T13:45:41.185Z,26.39
2018-05-21T13:46:41.208Z,26.35
2018-05-21T13:47:41.239Z,26.31
2018-05-21T13:48:41.247Z,26.25
2018-05-21T13:49:41.251Z,26.31
2018-05-21T13:50:41.270Z,26.37
2018-05-21T13:51:41.276Z,26.36
2018-05-21T13:52:41.298Z,26.39
2018-05-21T13:53:41.318Z,26.35
2018-05-21T13:55:28.496Z,26.05
2018-05-21T13:56:28.483Z,25.86
2018-05-21T13:57:28.487Z,25.94
2018-05-21T13:58:28.501Z,26.01
2018-05-21T13:59:28.522Z,26.01
2018-05-21T14:00:28.539Z,26.15
2018-05-21T14:01:28.558Z,26.20
2018-05-21T14:02:28.563Z,26.42
2018-05-21T14:03:28.714Z,26.54
2018-05-21T14:04:28.676Z,26.57
2018-05-21T14:05:28.605Z,26.59
2018-05-21T14:06:28.632Z,26.65
2018-05-21T14:07:28.650Z,26.64
2018-05-21T14:08:28.648Z,26.76
2018-05-21T14:09:28.678Z,26.68
2018-05-21T14:10:28.686Z,26.68
2018-05-21T14:11:28.704Z,26.68
2018-05-21T14:12:28.705Z,26.80
2018-05-21T14:13:28.738Z,26.68
2018-05-21T14:14:28.726Z,26.73
2018-05-21T14:15:28.752Z,26.58
2018-05-21T14:16:28.776Z,26.61
2018-05-21T14:17:28.835Z,26.57
2018-05-21T14:18:28.795Z,26.54
2018-05-21T14:19:28.821Z,26.74
2018-05-21T14:20:28.830Z,26.64
2018-05-21T14:21:28.860Z,26.73
2018-05-21T14:22:28.910Z,26.76
2018-05-21T14:23:28.871Z,26.54
2018-05-21T14:24:28.871Z,26.52
2018-05-21T14:25:28.899Z,26.47
2018-05-21T14:26:28.902Z,26.49
2018-05-21T14:27:28.934Z,26.37
2018-05-21T14:28:28.976Z,26.29
2018-05-21T14:29:29.014Z,26.27
2018-05-21T14:30:29.009Z,26.15
2018-05-21T14:31:28.976Z,26.17
2018-05-21T14:33:16.398Z,26.06
2018-05-21T14:34:16.283Z,26.18
2018-05-21T14:35:16.263Z,26.18
2018-05-21T14:36:16.344Z,26.24
2018-05-21T14:37:16.305Z,26.21
2018-05-21T14:38:16.354Z,26.29
2018-05-21T14:39:16.339Z,26.21
2018-05-21T14:40:17.430Z,26.28
2018-05-21T14:41:16.353Z,26.20
2018-05-21T14:42:16.408Z,26.08
2018-05-21T14:43:16.390Z,26.08
2018-05-21T14:45:03.477Z,26.04
2018-05-21T14:46:03.534Z,26.02
2018-05-21T14:47:03.490Z,25.91
2018-05-21T14:48:03.537Z,25.90
2018-05-21T14:49:03.501Z,25.77
2018-05-21T14:50:03.555Z,25.75
2018-05-21T14:51:03.527Z,25.69
2018-05-21T14:52:03.567Z,25.71
2018-05-21T14:53:03.564Z,25.86
2018-05-21T14:54:03.689Z,25.87
2018-05-21T14:55:03.603Z,25.98
2018-05-21T14:56:03.644Z,26.12
2018-05-21T14:57:03.622Z,26.08
2018-05-21T14:58:03.640Z,26.27
2018-05-21T14:59:03.729Z,26.11
2018-05-21T15:00:03.680Z,26.24
2018-05-21T15:01:03.683Z,26.28
2018-05-21T15:02:03.702Z,26.32
2018-05-21T15:03:03.699Z,26.35
2018-05-21T15:04:50.522Z,26.32
2018-05-21T15:05:50.488Z,26.31
2018-05-21T15:06:50.502Z,26.25
2018-05-21T15:07:50.517Z,26.27
2018-05-21T15:08:50.527Z,26.15
2018-05-21T15:09:50.627Z,26.09
2018-05-21T15:10:50.586Z,26.09
2018-05-21T15:11:50.592Z,26.02
2018-05-21T15:12:50.622Z,26.02
2018-05-21T15:13:50.633Z,26.04
2018-05-21T15:14:50.615Z,26.15
2018-05-21T15:15:50.635Z,26.17
2018-05-21T15:16:50.652Z,26.01
2018-05-21T15:17:50.678Z,26.12